Time;durP1;ratioP1;P1;durP2;ratioP2;P2;SDS_P1;SDS_P2;PMS_P1;PMS_P2;Temp;Humidity;BMP_temperature;BMP_pressure;BME280_temperature;BME280_humidity;BME280_pressure;Samples;Min_cycle;Max_cycle;Signal;HPM_P1;HPM_P2
2022/02/18 00:00:06;;;;;;;25.23;5.22;;;;;;;10.37;56.89;99796.28;4792385;29;123382;-85
2022/02/18 00:02:42;;;;;;;23.38;5.47;;;;;;;10.38;56.07;99795.81;4790999;29;119785;-83
2022/02/18 00:05:08;;;;;;;32.53;6.32;;;;;;;10.40;56.05;99809.81;4793554;29;121937;-84
2022/02/18 00:07:33;;;;;;;32.90;6.28;;;;;;;10.31;55.75;99803.66;4800352;29;120425;-86
2022/02/18 00:09:59;;;;;;;30.38;6.00;;;;;;;10.25;57.04;99805.53;4809175;29;122737;-85
2022/02/18 00:12:24;;;;;;;38.28;7.03;;;;;;;10.23;56.66;99805.25;4799356;29;122993;-88
2022/02/18 00:14:52;;;;;;;28.67;5.70;;;;;;;10.21;56.74;99808.47;4789547;29;119818;-87
2022/02/18 00:17:19;;;;;;;29.85;5.88;;;;;;;10.12;56.47;99797.53;4777047;29;122488;-87
2022/02/18 00:19:45;;;;;;;30.70;5.97;;;;;;;10.13;55.91;99797.06;4802606;29;123277;-87
2022/02/18 00:22:11;;;;;;;30.17;5.90;;;;;;;10.08;56.28;99783.25;4795332;29;121178;-88
2022/02/18 00:24:59;;;;;;;32.28;6.43;;;;;;;9.89;57.84;99754.47;4804960;29;120341;-88
2022/02/18 00:27:27;;;;;;;29.65;5.97;;;;;;;9.95;56.42;99774.53;4794279;29;123010;-87
2022/02/18 00:30:00;;;;;;;31.23;5.85;;;;;;;9.89;58.09;99760.72;4796587;29;122538;-87
2022/02/18 00:32:28;;;;;;;30.98;5.80;;;;;;;9.96;57.03;99776.06;4796860;29;122726;-87
2022/02/18 00:34:56;;;;;;;29.10;5.70;;;;;;;10.21;56.17;99808.47;4801414;29;121025;-85
2022/02/18 00:37:22;;;;;;;28.73;5.60;;;;;;;10.38;56.95;99845.16;4796045;29;120153;-86
2022/02/18 00:39:48;;;;;;;24.02;5.43;;;;;;;10.38;56.07;99849.91;4807939;29;120050;-85
2022/02/18 00:42:13;;;;;;;32.15;5.97;;;;;;;10.37;56.65;99854.63;4795624;29;120851;-87
2022/02/18 00:44:39;;;;;;;29.63;6.38;;;;;;;10.25;55.95;99844.66;4793927;29;120018;-86
2022/02/18 00:47:05;;;;;;;28.25;6.07;;;;;;;10.32;56.40;99836.09;4790510;29;122777;-86
2022/02/18 00:49:31;;;;;;;29.75;6.05;;;;;;;10.42;57.89;99864.97;4810919;29;119918;-86
2022/02/18 00:51:57;;;;;;;36.80;5.68;;;;;;;10.37;57.73;99873.81;4792870;29;119919;-86
2022/02/18 00:54:22;;;;;;;28.48;5.78;;;;;;;10.38;57.46;99867.09;4794577;29;120224;-86
2022/02/18 00:56:50;;;;;;;28.02;6.13;;;;;;;10.35;57.75;99868.03;4809718;29;119833;-86
2022/02/18 00:59:17;;;;;;;34.47;5.97;;;;;;;10.47;57.24;99893.72;4790391;29;122614;-85
2022/02/18 01:01:43;;;;;;;34.15;6.00;;;;;;;10.26;57.06;99862.63;4793412;29;123129;-85
2022/02/18 01:04:09;;;;;;;30.00;6.22;;;;;;;10.41;56.15;99877.16;4795330;29;121785;-85
2022/02/18 01:06:34;;;;;;;30.63;5.70;;;;;;;10.40;55.41;99875.59;4793061;29;122869;-86
2022/02/18 01:09:00;;;;;;;29.77;6.68;;;;;;;10.43;55.50;99891.16;4811249;29;119847;-86
2022/02/18 01:11:26;;;;;;;31.67;5.78;;;;;;;10.28;55.63;99870.38;4781527;29;121821;-87
2022/02/18 01:13:52;;;;;;;28.88;6.57;;;;;;;10.33;56.43;99886.94;4811607;29;120519;-86
2022/02/18 01:16:20;;;;;;;30.95;6.65;;;;;;;10.36;56.45;99874.28;4800432;29;121782;-86
2022/02/18 01:18:46;;;;;;;33.75;5.97;;;;;;;10.36;55.51;99877.03;4789014;29;120597;-87
2022/02/18 01:21:11;;;;;;;43.95;10.93;;;;;;;10.44;55.56;99892.66;4789520;29;121298;-86
2022/02/18 01:23:37;;;;;;;38.30;7.60;;;;;;;10.40;57.54;99886.56;4789049;29;119744;-86
2022/02/18 01:26:04;;;;;;;31.45;6.55;;;;;;;10.44;55.71;99886.41;4792289;29;123417;-84
2022/02/18 01:28:30;;;;;;;30.13;5.82;;;;;;;10.46;54.96;99894.94;4810746;29;120042;-85
2022/02/18 01:30:57;;;;;;;27.58;6.05;;;;;;;10.44;55.76;99887.19;4794976;29;122097;-85
2022/02/18 01:33:23;;;;;;;25.70;5.80;;;;;;;10.38;55.61;99878.06;4812015;29;119983;-85
2022/02/18 01:35:50;;;;;;;40.15;7.32;;;;;;;10.39;56.32;99873.34;4796867;29;119829;-84
2022/02/18 01:38:17;;;;;;;39.20;7.72;;;;;;;10.49;59.04;99885.00;4796976;29;123410;-85
2022/02/18 01:40:44;;;;;;;40.15;10.07;;;;;;;10.54;57.58;99870.66;4794733;29;119763;-84
2022/02/18 01:43:13;;;;;;;30.05;6.45;;;;;;;10.60;56.48;99888.72;4809651;29;122232;-85
2022/02/18 01:45:38;;;;;;;41.22;10.43;;;;;;;10.57;56.08;99886.91;4791669;29;120163;-85
2022/02/18 01:48:04;;;;;;;31.90;6.18;;;;;;;10.52;55.54;99898.53;4776325;29;119854;-85
2022/02/18 01:50:30;;;;;;;26.92;5.70;;;;;;;10.51;55.18;99893.53;4773781;29;121770;-85
2022/02/18 01:52:57;;;;;;;31.08;6.55;;;;;;;10.46;58.65;99889.44;4807648;29;123188;-85
2022/02/18 01:55:25;;;;;;;29.05;5.72;;;;;;;10.52;58.05;99886.81;4810026;29;120434;-86
2022/02/18 01:57:52;;;;;;;28.23;6.40;;;;;;;10.62;56.29;99885.50;4791880;29;123446;-86
2022/02/18 02:00:21;;;;;;;24.05;5.35;;;;;;;10.51;55.46;99875.09;4795661;29;119894;-87
2022/02/18 02:02:50;;;;;;;35.67;6.25;;;;;;;10.58;56.09;99890.41;4797807;29;122625;-88
2022/02/18 02:05:16;;;;;;;29.27;5.20;;;;;;;10.48;55.47;99878.00;4799381;29;121044;-87
2022/02/18 02:07:43;;;;;;;35.40;6.30;;;;;;;10.46;56.02;99873.00;4781986;29;119831;-88
2022/02/18 02:10:14;;;;;;;24.27;4.85;;;;;;;10.44;55.71;99881.69;4782167;29;122558;-87
2022/02/18 02:12:51;;;;;;;26.70;5.50;;;;;;;10.45;54.79;99883.22;4798202;29;123981;-87
2022/02/18 02:15:27;;;;;;;33.20;5.80;;;;;;;10.33;55.03;99875.97;4797470;29;120231;-88
2022/02/18 02:17:56;;;;;;;29.88;5.95;;;;;;;10.20;55.21;99850.03;4800186;29;119936;-87
2022/02/18 02:20:21;;;;;;;36.85;6.57;;;;;;;10.15;55.61;99851.41;4796811;29;121295;-88
2022/02/18 02:22:47;;;;;;;30.80;6.18;;;;;;;10.26;56.87;99867.34;4797814;29;122273;-88
2022/02/18 02:25:14;;;;;;;26.77;5.20;;;;;;;10.30;59.25;99856.97;4793695;29;123860;-88
2022/02/18 02:27:40;;;;;;;25.48;5.88;;;;;;;10.26;58.44;99837.97;4792942;29;119870;-88
2022/02/18 02:30:08;;;;;;;34.70;5.57;;;;;;;10.46;58.31;99840.09;4806248;29;122556;-88
2022/02/18 02:32:34;;;;;;;40.70;6.32;;;;;;;10.40;57.94;99831.00;4796166;29;122536;-87
2022/02/18 02:35:00;;;;;;;27.08;6.22;;;;;;;10.33;57.23;99809.44;4796877;29;119791;-87
2022/02/18 02:37:26;;;;;;;31.73;6.28;;;;;;;10.43;56.93;99828.09;4799969;29;121645;-87
2022/02/18 02:39:51;;;;;;;36.72;6.32;;;;;;;10.37;56.64;99820.97;4795465;29;119985;-87
2022/02/18 02:42:25;;;;;;;29.23;4.47;;;;;;;10.42;58.26;99839.53;4812726;29;119792;-86
2022/02/18 02:44:58;;;;;;;30.23;5.80;;;;;;;10.30;57.36;99830.31;4811283;29;120327;-87
2022/02/18 02:47:27;;;;;;;42.58;6.35;;;;;;;10.31;58.56;99836.56;4796038;29;120079;-86
2022/02/18 02:50:04;;;;;;;34.38;6.15;;;;;;;10.35;57.75;99846.09;4811018;29;122377;-87
2022/02/18 02:52:29;;;;;;;39.15;7.25;;;;;;;10.42;57.62;99864.97;4811292;29;123290;-87
2022/02/18 02:55:10;;;;;;;38.28;6.90;;;;;;;10.32;58.29;99838.81;4799335;29;121049;-87
2022/02/18 02:57:37;;;;;;;35.55;6.80;;;;;;;10.43;57.68;99846.53;4811069;29;119839;-87
2022/02/18 03:00:05;;;;;;;33.25;6.53;;;;;;;10.38;57.50;99831.47;4799585;29;123665;-87
2022/02/18 03:02:31;;;;;;;34.88;6.13;;;;;;;10.60;58.02;99855.06;4782093;29;122273;-87
2022/02/18 03:04:56;;;;;;;34.65;6.75;;;;;;;10.40;57.40;99831.75;4764727;29;123181;-86
2022/02/18 03:07:22;;;;;;;30.27;5.65;;;;;;;10.61;57.03;99862.81;4791170;29;119812;-86
2022/02/18 03:10:02;;;;;;;36.60;6.03;;;;;;;10.55;57.48;99848.25;4810597;29;120438;-88
2022/02/18 03:12:30;;;;;;;37.17;6.20;;;;;;;10.57;57.94;99856.00;4796015;29;120017;-87
2022/02/18 03:15:05;;;;;;;34.03;6.05;;;;;;;10.52;58.30;99848.44;4810710;29;122011;-87
2022/02/18 03:17:34;;;;;;;31.92;6.18;;;;;;;10.58;57.73;99852.03;4797290;29;120210;-87
2022/02/18 03:20:21;;;;;;;34.90;5.72;;;;;;;10.67;59.00;99868.41;4810904;29;120563;-87
2022/02/18 03:22:48;;;;;;;32.97;6.43;;;;;;;10.73;57.65;99880.25;4800510;29;120973;-88
2022/02/18 03:25:14;;;;;;;31.73;5.93;;;;;;;10.60;59.08;99863.28;4781348;29;120157;-87
2022/02/18 03:27:42;;;;;;;41.10;6.85;;;;;;;10.73;59.07;99869.28;4815320;29;120328;-87
2022/02/18 03:30:15;;;;;;;39.58;6.60;;;;;;;10.67;58.50;99865.69;4807271;29;119823;-87
2022/02/18 03:32:42;;;;;;;37.75;6.78;;;;;;;10.62;58.16;99860.81;4796744;29;123384;-87
2022/02/18 03:35:08;;;;;;;32.00;6.63;;;;;;;10.70;58.45;99878.44;4812173;29;119464;-87
2022/02/18 03:37:41;;;;;;;38.05;6.60;;;;;;;10.80;58.47;99895.56;4811989;29;120153;-87
2022/02/18 03:40:21;;;;;;;37.53;5.97;;;;;;;10.76;58.02;99879.31;4789270;29;123206;-87
2022/02/18 03:42:48;;;;;;;29.95;6.10;;;;;;;10.78;58.69;99887.81;4796623;29;119886;-87
2022/02/18 03:45:14;;;;;;;32.80;6.07;;;;;;;10.72;58.50;99882.22;4798541;29;122869;-87
2022/02/18 03:47:40;;;;;;;40.28;6.65;;;;;;;10.64;58.23;99861.09;4810123;29;119563;-87
2022/02/18 03:50:09;;;;;;;42.22;6.75;;;;;;;10.73;58.05;99875.53;4812730;29;121631;-87
2022/02/18 03:52:34;;;;;;;32.95;6.18;;;;;;;10.82;59.82;99876.66;4797968;29;124078;-86
2022/02/18 03:55:00;;;;;;;34.38;6.03;;;;;;;10.86;60.17;99880.72;4795935;29;120125;-86
2022/02/18 03:57:26;;;;;;;39.35;6.50;;;;;;;10.82;59.41;99854.72;4807219;29;121921;-86
2022/02/18 03:59:52;;;;;;;33.20;6.13;;;;;;;10.84;60.02;99863.97;4816479;29;120462;-87
2022/02/18 04:02:18;;;;;;;31.92;5.57;;;;;;;10.65;58.59;99841.47;4813068;29;120014;-86
2022/02/18 04:04:43;;;;;;;43.67;7.18;;;;;;;10.82;58.01;99866.44;4785425;29;123058;-86
2022/02/18 04:07:22;;;;;;;32.75;6.82;;;;;;;10.71;58.21;99856.03;4803831;29;122819;-87
2022/02/18 04:09:56;;;;;;;32.05;6.10;;;;;;;10.67;58.10;99839.00;4813328;29;121663;-87
2022/02/18 04:12:26;;;;;;;37.17;6.72;;;;;;;10.53;58.08;99844.47;4799416;29;120017;-87
2022/02/18 04:14:57;;;;;;;35.70;6.22;;;;;;;10.71;58.24;99861.50;4802841;29;120076;-87
2022/02/18 04:17:25;;;;;;;36.03;6.18;;;;;;;10.39;58.02;99822.00;4784899;29;122115;-87
2022/02/18 04:19:59;;;;;;;34.28;6.43;;;;;;;10.72;58.41;99878.72;4801118;29;123283;-86
2022/02/18 04:22:37;;;;;;;37.72;6.38;;;;;;;10.68;58.93;99883.66;4816246;29;120168;-87
2022/02/18 04:25:05;;;;;;;36.03;6.88;;;;;;;10.64;59.63;99864.59;4813623;29;119497;-87
2022/02/18 04:27:30;;;;;;;38.97;6.80;;;;;;;10.43;60.84;99830.84;4780893;29;123420;-87
2022/02/18 04:29:56;;;;;;;38.05;6.63;;;;;;;10.75;59.71;99875.81;4790481;29;119838;-86
2022/02/18 04:32:21;;;;;;;31.42;6.50;;;;;;;10.62;59.25;99858.09;4798776;29;119955;-86
2022/02/18 04:34:47;;;;;;;36.65;5.78;;;;;;;10.76;60.43;99869.09;4814430;29;121217;-87
2022/02/18 04:37:12;;;;;;;31.17;6.10;;;;;;;10.83;59.49;99884.41;4802729;29;119975;-86
2022/02/18 04:39:38;;;;;;;34.30;6.57;;;;;;;10.87;59.99;99876.75;4796792;29;123303;-86
2022/02/18 04:42:04;;;;;;;35.80;6.53;;;;;;;10.84;59.47;99869.47;4782560;29;121225;-86
2022/02/18 04:44:32;;;;;;;31.90;6.25;;;;;;;10.89;58.38;99871.56;4814460;29;120539;-86
2022/02/18 04:46:58;;;;;;;35.10;6.32;;;;;;;10.98;59.76;99885.19;4781986;29;122605;-86
2022/02/18 04:49:23;;;;;;;39.35;6.63;;;;;;;10.96;58.58;99881.41;4787318;29;119731;-86
2022/02/18 04:51:49;;;;;;;35.15;6.47;;;;;;;11.03;58.19;99881.78;4800261;29;123152;-86
2022/02/18 04:54:15;;;;;;;37.13;6.78;;;;;;;11.01;58.79;99884.25;4783047;29;120450;-86
2022/02/18 04:56:43;;;;;;;32.35;7.25;;;;;;;10.85;59.27;99859.25;4812913;29;121854;-86
2022/02/18 04:59:08;;;;;;;39.65;6.75;;;;;;;11.06;59.35;99883.59;4812030;29;123561;-86
2022/02/18 05:01:34;;;;;;;38.75;6.13;;;;;;;11.08;60.42;99889.34;4783037;29;119875;-86
2022/02/18 05:03:59;;;;;;;38.95;7.68;;;;;;;10.85;59.61;99856.50;4796781;29;119845;-87
2022/02/18 05:06:25;;;;;;;34.92;6.28;;;;;;;11.12;59.43;99899.38;4797153;29;123263;-86
2022/02/18 05:08:50;;;;;;;35.30;6.60;;;;;;;10.98;58.33;99873.47;4799362;29;119713;-85
2022/02/18 05:11:16;;;;;;;35.90;7.32;;;;;;;11.02;58.45;99880.28;4799434;29;121919;-85
2022/02/18 05:13:41;;;;;;;36.33;6.40;;;;;;;11.03;58.51;99875.53;4799001;29;119759;-86
2022/02/18 05:16:07;;;;;;;33.25;6.85;;;;;;;10.88;59.64;99861.03;4798322;29;119947;-87
2022/02/18 05:18:32;;;;;;;43.58;7.07;;;;;;;11.08;59.07;99881.13;4813224;29;120575;-88
2022/02/18 05:20:58;;;;;;;37.22;7.40;;;;;;;11.09;59.29;99876.38;4798565;29;121351;-87
2022/02/18 05:23:24;;;;;;;42.05;7.45;;;;;;;11.03;58.93;99870.81;4800330;29;121927;-87
2022/02/18 05:25:50;;;;;;;38.08;6.65;;;;;;;11.02;59.21;99868.53;4811412;29;121360;-87
2022/02/18 05:28:15;;;;;;;37.50;7.63;;;;;;;10.99;59.05;99870.25;4799185;29;120981;-85
2022/02/18 05:30:45;;;;;;;38.40;6.78;;;;;;;10.92;59.13;99856.91;4827469;29;121773;-85
2022/02/18 05:33:12;;;;;;;41.45;7.45;;;;;;;11.03;59.65;99873.56;4796365;29;120373;-85
2022/02/18 05:35:39;;;;;;;34.38;6.68;;;;;;;10.96;59.29;99854.72;4794310;29;121624;-85
2022/02/18 05:38:05;;;;;;;40.78;7.45;;;;;;;11.02;59.70;99858.31;4795920;29;123235;-86
2022/02/18 05:40:30;;;;;;;41.15;7.07;;;;;;;10.98;59.71;99846.03;4794578;29;120948;-86
2022/02/18 05:42:56;;;;;;;35.83;6.70;;;;;;;11.06;60.38;99853.41;4765367;29;122247;-85
2022/02/18 05:45:21;;;;;;;45.45;7.15;;;;;;;11.08;59.70;99856.41;4794381;29;120409;-87
2022/02/18 05:47:47;;;;;;;42.97;7.57;;;;;;;11.06;59.61;99858.88;4811258;29;120636;-85
2022/02/18 05:50:13;;;;;;;41.58;7.35;;;;;;;11.03;59.83;99843.38;4798832;29;121749;-85
2022/02/18 05:52:39;;;;;;;40.13;6.72;;;;;;;11.08;60.74;99839.97;4799203;29;120175;-86
2022/02/18 05:55:06;;;;;;;43.97;8.38;;;;;;;11.07;60.62;99832.19;4784553;29;120280;-86
2022/02/18 05:57:32;;;;;;;42.15;6.43;;;;;;;10.92;60.16;99798.53;4809865;29;122948;-86
2022/02/18 05:59:57;;;;;;;47.75;7.38;;;;;;;11.04;61.19;99806.47;4813372;29;119769;-86
2022/02/18 06:02:23;;;;;;;35.42;6.03;;;;;;;11.08;60.73;99804.28;4810214;29;122994;-85
2022/02/18 06:04:50;;;;;;;38.30;6.85;;;;;;;11.15;60.04;99802.41;4815560;29;123148;-86
2022/02/18 06:07:16;;;;;;;35.47;6.18;;;;;;;11.18;60.18;99818.69;4783015;29;119732;-86
2022/02/18 06:09:42;;;;;;;35.13;6.15;;;;;;;11.26;59.72;99816.28;4812078;29;119854;-85
2022/02/18 06:12:09;;;;;;;33.00;6.18;;;;;;;11.26;59.70;99821.78;4795859;29;120456;-86
2022/02/18 06:14:34;;;;;;;40.28;6.72;;;;;;;11.25;59.43;99820.25;4779710;29;119957;-86
2022/02/18 06:17:02;;;;;;;40.10;6.25;;;;;;;11.25;60.85;99817.53;4785568;29;123509;-86
2022/02/18 06:19:27;;;;;;;35.67;6.38;;;;;;;11.15;59.92;99802.41;4796594;29;119849;-86
2022/02/18 06:21:53;;;;;;;35.88;5.60;;;;;;;11.23;60.77;99798.03;4797554;29;119473;-86
2022/02/18 06:24:19;;;;;;;34.17;5.88;;;;;;;11.07;61.32;99755.34;4795200;29;122706;-86
2022/02/18 06:26:45;;;;;;;32.45;6.13;;;;;;;11.19;60.21;99770.03;4799805;29;119510;-86
2022/02/18 06:29:10;;;;;;;30.85;6.00;;;;;;;11.35;60.29;99783.22;4797301;29;121952;-84
2022/02/18 06:31:37;;;;;;;33.80;5.85;;;;;;;11.13;59.86;99753.47;4799453;29;119788;-86
2022/02/18 06:34:03;;;;;;;29.83;6.90;;;;;;;11.03;60.51;99744.59;4794531;29;119980;-86
2022/02/18 06:36:28;;;;;;;29.38;5.25;;;;;;;11.30;60.12;99781.16;4800022;29;122454;-85
2022/02/18 06:38:54;;;;;;;32.88;5.35;;;;;;;11.29;59.91;99771.41;4813030;29;121323;-86
2022/02/18 06:41:21;;;;;;;28.70;6.72;;;;;;;11.27;60.16;99766.41;4799054;29;119520;-87
2022/02/18 06:43:47;;;;;;;30.98;5.60;;;;;;;11.27;61.64;99773.88;4804318;29;122928;-86
2022/02/18 06:46:13;;;;;;;29.27;4.60;;;;;;;11.32;60.13;99773.94;4789942;29;119494;-87
2022/02/18 06:48:38;;;;;;;29.20;4.90;;;;;;;11.33;59.42;99769.97;4800414;29;119782;-87
2022/02/18 06:51:05;;;;;;;27.20;5.72;;;;;;;11.27;59.41;99763.66;4811082;29;120368;-86
2022/02/18 06:53:31;;;;;;;27.98;5.50;;;;;;;11.27;60.34;99760.16;4797715;29;119753;-86
2022/02/18 06:55:57;;;;;;;31.17;5.68;;;;;;;11.24;59.04;99744.63;4795784;29;120074;-87
2022/02/18 06:58:23;;;;;;;31.73;5.95;;;;;;;11.18;59.04;99741.06;4799671;29;122953;-87
2022/02/18 07:00:51;;;;;;;27.13;4.72;;;;;;;11.16;58.90;99733.31;4784270;29;122297;-86
2022/02/18 07:03:20;;;;;;;33.42;5.60;;;;;;;11.01;59.28;99702.38;4807988;29;122446;-87
2022/02/18 07:05:46;;;;;;;31.92;6.03;;;;;;;11.17;59.19;99725.84;4779796;29;120042;-86
2022/02/18 07:08:12;;;;;;;29.25;5.30;;;;;;;11.01;58.95;99696.91;4781925;29;122094;-86
2022/02/18 07:10:38;;;;;;;33.08;5.50;;;;;;;11.15;59.05;99718.06;4782677;29;123446;-86
2022/02/18 07:13:03;;;;;;;39.25;5.53;;;;;;;11.12;59.01;99702.56;4811035;29;120020;-87
2022/02/18 07:15:29;;;;;;;29.30;5.20;;;;;;;11.02;59.07;99698.41;4814453;29;121626;-86
2022/02/18 07:17:55;;;;;;;36.97;5.15;;;;;;;11.08;59.48;99686.28;4810196;29;120310;-85
2022/02/18 07:20:22;;;;;;;32.25;5.45;;;;;;;10.98;59.12;99671.19;4813632;29;119628;-86
2022/02/18 07:22:48;;;;;;;35.67;5.70;;;;;;;10.98;59.14;99670.41;4799603;29;120284;-86
2022/02/18 07:25:14;;;;;;;30.95;5.28;;;;;;;11.07;59.26;99682.03;4811393;29;120191;-87
2022/02/18 07:27:40;;;;;;;39.67;5.93;;;;;;;10.94;59.20;99647.91;4796281;29;124976;-85
2022/02/18 07:30:07;;;;;;;45.17;5.72;;;;;;;11.02;59.21;99655.25;4810232;29;119850;-86
2022/02/18 07:32:33;;;;;;;33.10;5.53;;;;;;;10.87;59.33;99637.31;4811947;29;119831;-85
2022/02/18 07:34:59;;;;;;;34.05;6.88;;;;;;;10.88;59.20;99636.84;4809494;29;119502;-85
2022/02/18 07:37:24;;;;;;;30.95;5.65;;;;;;;10.82;59.38;99633.28;4790469;29;120602;-84
2022/02/18 07:39:50;;;;;;;30.08;5.60;;;;;;;10.81;59.65;99641.97;4814757;29;119896;-85
2022/02/18 07:42:15;;;;;;;33.05;5.95;;;;;;;10.79;59.24;99642.47;4804467;29;119699;-85
2022/02/18 07:44:44;;;;;;;32.47;6.35;;;;;;;10.73;59.50;99627.91;4795552;29;119706;-85
2022/02/18 07:47:10;;;;;;;31.83;6.18;;;;;;;10.82;59.42;99630.53;4814127;29;122172;-86
2022/02/18 07:49:35;;;;;;;28.77;5.25;;;;;;;10.80;59.79;99624.78;4809375;29;120442;-86
2022/02/18 07:52:02;;;;;;;29.60;5.72;;;;;;;10.76;59.77;99610.50;4796365;29;126377;-85
2022/02/18 07:54:28;;;;;;;29.30;5.50;;;;;;;10.76;59.49;99616.75;4813069;29;122266;-86
2022/02/18 07:56:54;;;;;;;32.05;5.80;;;;;;;10.88;59.46;99631.34;4794228;29;123408;-85
2022/02/18 07:59:20;;;;;;;29.63;5.05;;;;;;;10.83;59.50;99623.81;4808496;29;121604;-85
2022/02/18 08:01:45;;;;;;;23.35;4.70;;;;;;;10.89;60.00;99630.16;4815038;29;122391;-85
2022/02/18 08:04:11;;;;;;;27.05;4.78;;;;;;;10.82;59.78;99608.59;4813497;29;120045;-85
2022/02/18 08:06:39;;;;;;;31.75;5.65;;;;;;;10.79;59.60;99609.53;4810492;29;120227;-85
2022/02/18 08:09:04;;;;;;;33.03;5.55;;;;;;;10.83;59.86;99615.59;4817578;29;122817;-85
2022/02/18 08:11:30;;;;;;;32.05;6.07;;;;;;;10.83;60.12;99609.34;4794110;29;121680;-85
2022/02/18 08:13:56;;;;;;;26.50;5.57;;;;;;;10.75;60.19;99581.56;4788645;29;120051;-85
2022/02/18 08:16:21;;;;;;;30.95;5.90;;;;;;;10.78;60.25;99591.56;4815888;29;122933;-85
2022/02/18 08:18:49;;;;;;;29.38;5.90;;;;;;;10.68;60.40;99581.97;4792894;29;120889;-85
2022/02/18 08:21:15;;;;;;;27.42;5.90;;;;;;;10.65;60.69;99575.47;4808418;29;120070;-85
2022/02/18 08:23:41;;;;;;;31.15;5.93;;;;;;;10.65;60.95;99567.22;4802504;29;123091;-86
2022/02/18 08:26:07;;;;;;;35.38;6.38;;;;;;;10.70;60.43;99560.31;4795564;29;120752;-86
2022/02/18 08:28:33;;;;;;;31.17;6.38;;;;;;;10.53;61.06;99532.66;4790962;29;123763;-86
2022/02/18 08:31:02;;;;;;;29.80;5.90;;;;;;;10.83;60.74;99557.97;4795539;29;120531;-85
2022/02/18 08:33:27;;;;;;;40.90;6.18;;;;;;;10.75;60.10;99543.91;4809714;29;120306;-86
2022/02/18 08:35:54;;;;;;;32.03;6.30;;;;;;;10.77;60.29;99537.97;4808836;29;123542;-85
2022/02/18 08:38:22;;;;;;;29.13;5.18;;;;;;;10.60;60.58;99517.78;4813376;29;120520;-86
2022/02/18 08:40:50;;;;;;;26.80;5.30;;;;;;;10.73;59.89;99529.19;4779936;29;122444;-85
2022/02/18 08:43:15;;;;;;;20.17;4.60;;;;;;;10.80;60.19;99536.25;4816926;29;120665;-86
2022/02/18 08:45:44;;;;;;;27.33;4.38;;;;;;;10.76;59.68;99522.75;4787912;29;119937;-85
2022/02/18 08:48:09;;;;;;;19.75;4.38;;;;;;;10.82;59.21;99531.03;4812323;29;122797;-85
2022/02/18 08:50:38;;;;;;;23.30;4.05;;;;;;;10.89;58.92;99525.16;4810563;29;119998;-85
2022/02/18 08:53:03;;;;;;;22.92;4.40;;;;;;;10.85;58.71;99517.09;4798935;29;122015;-85
2022/02/18 08:55:32;;;;;;;21.55;4.20;;;;;;;10.51;59.02;99465.81;4767344;29;123351;-86
2022/02/18 08:57:59;;;;;;;19.63;4.22;;;;;;;10.82;58.75;99506.34;4797440;29;122084;-85
2022/02/18 09:00:25;;;;;;;20.40;4.07;;;;;;;10.80;58.46;99495.84;4811820;29;120027;-85
2022/02/18 09:02:50;;;;;;;17.80;3.90;;;;;;;10.77;59.01;99480.38;4799726;29;120299;-85
2022/02/18 09:05:17;;;;;;;17.45;3.50;;;;;;;10.73;58.93;99472.34;4798928;29;119810;-86
2022/02/18 09:07:44;;;;;;;19.58;4.13;;;;;;;10.68;58.58;99467.56;4801827;29;119771;-86
2022/02/18 09:10:13;;;;;;;17.90;4.18;;;;;;;10.65;58.72;99462.28;4812427;29;119631;-86
2022/02/18 09:12:40;;;;;;;21.23;3.90;;;;;;;10.70;58.54;99454.09;4797063;29;121573;-86
2022/02/18 09:15:06;;;;;;;18.80;4.18;;;;;;;10.67;58.65;99451.56;4811863;29;119986;-85
2022/02/18 09:17:35;;;;;;;18.13;3.92;;;;;;;10.61;58.67;99440.53;4813057;29;120184;-85
2022/02/18 09:20:02;;;;;;;14.60;3.63;;;;;;;10.58;59.00;99436.00;4796874;29;121854;-85
2022/02/18 09:22:28;;;;;;;17.75;4.05;;;;;;;10.43;59.06;99424.38;4813588;29;123092;-86
2022/02/18 09:24:54;;;;;;;19.10;4.53;;;;;;;10.31;59.58;99409.00;4799709;29;120234;-85
2022/02/18 09:27:21;;;;;;;21.58;4.03;;;;;;;10.38;59.74;99414.06;4797048;29;122574;-85
2022/02/18 09:29:47;;;;;;;19.30;4.05;;;;;;;10.32;59.58;99391.31;4801922;29;120104;-87
2022/02/18 09:32:16;;;;;;;18.63;4.20;;;;;;;10.32;59.93;99383.09;4810623;29;121755;-87
2022/02/18 09:34:46;;;;;;;20.60;4.53;;;;;;;10.30;59.73;99380.84;4811052;29;123069;-87
2022/02/18 09:37:16;;;;;;;17.15;3.67;;;;;;;10.20;60.06;99356.78;4812959;29;119561;-86
2022/02/18 09:39:43;;;;;;;18.08;4.20;;;;;;;10.27;60.14;99379.06;4803615;29;119598;-87
2022/02/18 09:42:13;;;;;;;15.48;4.35;;;;;;;10.31;60.46;99376.88;4817620;29;123558;-87
2022/02/18 09:44:41;;;;;;;16.13;4.05;;;;;;;10.29;60.48;99371.09;4820006;29;119925;-87
2022/02/18 09:47:08;;;;;;;20.10;4.22;;;;;;;10.23;60.54;99362.06;4798374;29;120032;-87
2022/02/18 09:49:34;;;;;;;17.88;4.70;;;;;;;10.20;61.26;99351.28;4798708;29;119882;-87
2022/02/18 09:52:01;;;;;;;20.15;4.03;;;;;;;10.20;61.51;99341.09;4816521;29;119839;-87
2022/02/18 09:54:27;;;;;;;18.85;4.70;;;;;;;10.11;61.47;99327.50;4814054;29;123128;-87
2022/02/18 09:56:53;;;;;;;18.35;4.55;;;;;;;10.15;61.99;99326.06;4812596;29;119940;-86
2022/02/18 09:59:19;;;;;;;18.63;4.22;;;;;;;10.11;61.97;99300.09;4794447;29;122032;-85
2022/02/18 10:01:45;;;;;;;18.92;4.00;;;;;;;10.20;61.92;99297.25;4807093;29;120326;-86
2022/02/18 10:04:11;;;;;;;22.15;3.95;;;;;;;10.27;62.54;99294.09;4766293;29;119510;-85
2022/02/18 10:06:38;;;;;;;17.42;4.15;;;;;;;10.19;62.69;99275.81;4812486;29;119509;-85
2022/02/18 10:09:04;;;;;;;20.92;4.65;;;;;;;10.31;62.62;99283.69;4798037;29;120311;-86
2022/02/18 10:11:50;;;;;;;18.70;4.18;;;;;;;10.30;62.78;99273.94;4812951;29;122118;-87
2022/02/18 10:14:15;;;;;;;16.02;3.80;;;;;;;10.23;62.98;99246.22;4794680;29;122258;-87
2022/02/18 10:16:41;;;;;;;16.70;5.25;;;;;;;10.09;62.84;99223.88;4799150;29;119930;-86
2022/02/18 10:19:10;;;;;;;17.05;3.88;;;;;;;10.22;63.35;99234.53;4769755;29;121784;-86
2022/02/18 10:21:38;;;;;;;19.92;4.30;;;;;;;10.29;63.01;99231.34;4795181;29;123692;-85
2022/02/18 10:24:17;;;;;;;19.00;4.40;;;;;;;10.30;63.24;99224.63;4796109;29;119747;-85
2022/02/18 10:26:49;;;;;;;19.20;5.05;;;;;;;10.30;63.40;99219.16;4796435;29;122368;-86
2022/02/18 10:29:24;;;;;;;18.50;4.60;;;;;;;10.33;63.78;99201.72;4796056;29;125130;-86
2022/02/18 10:32:12;;;;;;;24.08;4.40;;;;;;;10.38;63.55;99194.78;4771801;29;120190;-86
2022/02/18 10:35:00;;;;;;;18.13;4.45;;;;;;;10.36;63.14;99189.03;4809012;29;119623;-86
2022/02/18 10:37:28;;;;;;;19.60;5.13;;;;;;;10.34;63.30;99175.81;4782314;29;123526;-88
2022/02/18 10:40:10;;;;;;;15.07;4.80;;;;;;;10.36;63.10;99156.91;4802899;29;123153;-87
2022/02/18 10:42:37;;;;;;;17.80;5.88;;;;;;;10.31;63.16;99143.91;4794240;29;123156;-88
2022/02/18 10:45:07;;;;;;;17.23;6.00;;;;;;;10.25;63.16;99129.41;4796363;29;119881;-86
2022/02/18 10:47:33;;;;;;;15.60;5.50;;;;;;;10.35;63.12;99138.97;4805508;29;122287;-86
2022/02/18 10:49:59;;;;;;;18.60;6.53;;;;;;;10.22;63.46;99103.00;4796271;29;120867;-87
2022/02/18 10:52:25;;;;;;;16.30;5.80;;;;;;;10.18;63.96;99088.00;4792336;29;123612;-87
2022/02/18 10:54:50;;;;;;;21.20;6.40;;;;;;;10.29;63.76;99091.59;4789078;29;122189;-86
2022/02/18 10:57:19;;;;;;;19.35;5.10;;;;;;;10.37;63.76;99084.41;4813218;29;120122;-86
2022/02/18 10:59:46;;;;;;;14.45;4.93;;;;;;;10.27;63.66;99063.91;4811547;29;122375;-86
2022/02/18 11:02:12;;;;;;;13.38;3.65;;;;;;;10.30;63.96;99049.25;4810972;29;122836;-86
2022/02/18 11:04:38;;;;;;;10.20;3.58;;;;;;;10.27;64.00;99052.97;4793833;29;119936;-89
2022/02/18 11:07:11;;;;;;;9.98;3.03;;;;;;;10.19;63.02;99035.44;4771847;29;122477;-87
2022/02/18 11:09:37;;;;;;;10.57;2.60;;;;;;;10.12;63.02;99017.44;4808641;29;123411;-87
2022/02/18 11:12:11;;;;;;;9.45;2.70;;;;;;;9.98;63.48;98996.44;4804992;29;119871;-86
2022/02/18 11:14:40;;;;;;;8.93;2.70;;;;;;;9.95;63.56;98986.47;4790609;29;121399;-88
2022/02/18 11:17:07;;;;;;;10.43;3.15;;;;;;;9.72;63.79;98938.25;4793360;29;122887;-87